Time;durP1;ratioP1;P1;durP2;ratioP2;P2;SDS_P1;SDS_P2;PMS_P1;PMS_P2;Temp;Humidity;BMP_temperature;BMP_pressure;BME280_temperature;BME280_humidity;BME280_pressure;Samples;Min_cycle;Max_cycle;Signal;HPM_P1;HPM_P2
2022/11/03 00:01:38;;;;;;;3.85;3.50;;;11.10;99.90;;;;;;5094568;28;20227;-88
2022/11/03 00:04:09;;;;;;;4.38;3.85;;;11.10;99.90;;;;;;5090946;28;20204;-87
2022/11/03 00:06:39;;;;;;;6.35;3.58;;;11.10;99.90;;;;;;5094431;28;20223;-87
2022/11/03 00:09:08;;;;;;;4.85;3.30;;;11.00;99.90;;;;;;5097819;28;20204;-88
2022/11/03 00:11:38;;;;;;;5.13;3.85;;;11.00;99.90;;;;;;5100784;28;20227;-88
2022/11/03 00:14:08;;;;;;;5.25;3.97;;;11.00;99.90;;;;;;5095374;28;20212;-88
2022/11/03 00:16:37;;;;;;;5.13;3.63;;;11.00;99.90;;;;;;5099521;28;20199;-87
2022/11/03 00:19:08;;;;;;;4.40;3.42;;;11.00;99.90;;;;;;5098741;28;20202;-87
2022/11/03 00:21:37;;;;;;;4.45;3.95;;;11.00;99.90;;;;;;5096971;28;20212;-87
2022/11/03 00:24:07;;;;;;;4.05;3.65;;;10.90;99.90;;;;;;5095142;28;20208;-86
2022/11/03 00:26:36;;;;;;;17.98;4.57;;;10.90;99.90;;;;;;5098223;28;20220;-87
2022/11/03 00:29:08;;;;;;;5.95;4.55;;;10.90;99.90;;;;;;5094141;28;20207;-87
2022/11/03 00:31:38;;;;;;;4.47;3.92;;;10.90;99.90;;;;;;5104165;28;20311;-87
2022/11/03 00:34:09;;;;;;;4.70;3.90;;;10.80;99.90;;;;;;5097508;28;20200;-87
2022/11/03 00:36:39;;;;;;;6.05;4.07;;;10.80;99.90;;;;;;5097287;28;20200;-87
2022/11/03 00:39:08;;;;;;;12.60;3.45;;;10.80;99.90;;;;;;5096299;28;20216;-87
2022/11/03 00:41:36;;;;;;;3.33;2.85;;;10.80;99.90;;;;;;5098952;28;20224;-87
2022/11/03 00:44:05;;;;;;;3.85;3.15;;;10.80;99.90;;;;;;5105895;28;20210;-86
2022/11/03 00:46:34;;;;;;;3.25;2.95;;;10.70;99.90;;;;;;5092401;28;20220;-86
2022/11/03 00:49:04;;;;;;;3.50;2.92;;;10.70;99.90;;;;;;5104907;28;20214;-87
2022/11/03 00:51:35;;;;;;;4.68;3.75;;;10.60;99.90;;;;;;5111703;28;20227;-87
2022/11/03 00:54:05;;;;;;;3.50;3.20;;;10.60;99.90;;;;;;5112331;28;20230;-87
2022/11/03 00:56:36;;;;;;;4.47;3.40;;;10.60;99.90;;;;;;5111393;28;20217;-87
2022/11/03 00:59:05;;;;;;;3.13;2.83;;;10.50;99.90;;;;;;5092335;28;20239;-87
2022/11/03 01:01:36;;;;;;;4.03;3.22;;;10.50;99.90;;;;;;5097715;28;20211;-87
2022/11/03 01:07:01;;;;;;;12.80;3.50;;;10.50;99.90;;;;;;5110929;28;20227;-86
2022/11/03 01:09:31;;;;;;;4.05;3.50;;;10.40;99.90;;;;;;5110647;28;20227;-87
2022/11/03 01:12:02;;;;;;;3.75;3.35;;;10.40;99.90;;;;;;5092079;28;20227;-87
2022/11/03 01:14:33;;;;;;;3.97;3.58;;;10.30;99.90;;;;;;5091932;28;20212;-87
2022/11/03 01:17:01;;;;;;;4.28;2.55;;;10.30;99.90;;;;;;5101379;28;20195;-87
2022/11/03 01:19:30;;;;;;;4.07;3.05;;;10.30;99.90;;;;;;5113567;28;20203;-87
2022/11/03 01:21:59;;;;;;;3.38;2.70;;;10.30;99.90;;;;;;5113788;28;20223;-87
2022/11/03 01:24:28;;;;;;;3.33;2.78;;;10.30;99.90;;;;;;5109155;28;20207;-87
2022/11/03 01:26:56;;;;;;;3.40;3.03;;;10.30;99.90;;;;;;5111218;28;20219;-87
2022/11/03 01:29:24;;;;;;;3.85;3.20;;;10.30;99.90;;;;;;5093425;28;20208;-87
2022/11/03 01:31:52;;;;;;;3.05;2.60;;;10.30;99.90;;;;;;5098545;28;20223;-87
2022/11/03 01:34:21;;;;;;;7.10;2.85;;;10.20;99.90;;;;;;5106187;28;20189;-86
2022/11/03 01:36:50;;;;;;;2.67;2.17;;;10.20;99.90;;;;;;5094095;28;20208;-86
2022/11/03 01:39:19;;;;;;;9.90;3.15;;;10.20;99.90;;;;;;5109836;28;20211;-86
2022/11/03 01:41:50;;;;;;;3.30;3.00;;;10.20;99.90;;;;;;5113751;28;20222;-87
2022/11/03 01:44:42;;;;;;;5.93;3.38;;;10.20;99.90;;;;;;5107541;28;20189;-86
2022/11/03 01:47:19;;;;;;;7.35;3.30;;;10.10;99.90;;;;;;5090577;28;20218;-87
2022/11/03 01:49:51;;;;;;;3.08;2.75;;;10.10;99.90;;;;;;5098453;28;20227;-87
2022/11/03 01:52:25;;;;;;;7.82;4.45;;;10.10;99.90;;;;;;5096967;28;20210;-86
2022/11/03 01:54:59;;;;;;;4.00;3.20;;;10.10;99.90;;;;;;5093705;28;20294;-86
2022/11/03 01:57:33;;;;;;;11.05;3.88;;;10.10;99.90;;;;;;5094002;28;20205;-86
2022/11/03 02:00:03;;;;;;;5.03;3.03;;;10.00;99.90;;;;;;5094448;28;20216;-86
2022/11/03 02:02:31;;;;;;;3.67;3.28;;;10.00;99.90;;;;;;5105143;28;20203;-87
2022/11/03 02:05:02;;;;;;;3.00;2.70;;;10.00;99.90;;;;;;5094245;28;20223;-86
2022/11/03 02:07:35;;;;;;;3.35;2.97;;;9.90;99.90;;;;;;5094307;28;20224;-87
2022/11/03 02:10:07;;;;;;;3.65;3.22;;;9.90;99.90;;;;;;5093389;28;20204;-87
2022/11/03 02:12:37;;;;;;;4.07;3.67;;;9.90;99.90;;;;;;5094182;28;20196;-86
2022/11/03 02:15:09;;;;;;;6.35;3.65;;;9.90;99.90;;;;;;5093591;28;20200;-86
2022/11/03 02:17:39;;;;;;;5.65;3.75;;;9.90;99.90;;;;;;5093956;28;20211;-86
2022/11/03 02:20:11;;;;;;;4.05;2.83;;;9.90;99.90;;;;;;5093323;28;20220;-87
2022/11/03 02:23:04;;;;;;;3.40;2.90;;;9.80;99.90;;;;;;5109650;28;20199;-86
2022/11/03 02:25:42;;;;;;;3.95;3.55;;;9.80;99.90;;;;;;5113439;28;20249;-86
2022/11/03 02:28:12;;;;;;;4.13;3.00;;;9.80;99.90;;;;;;5112323;28;20215;-86
2022/11/03 02:30:44;;;;;;;5.22;3.40;;;9.80;99.90;;;;;;5113997;28;20231;-86
2022/11/03 02:33:32;;;;;;;3.15;2.83;;;9.80;99.90;;;;;;5116628;28;20207;-86
2022/11/03 02:36:10;;;;;;;4.38;3.22;;;9.70;99.90;;;;;;5117557;28;20192;-86
2022/11/03 02:38:45;;;;;;;4.32;3.58;;;9.70;99.90;;;;;;5117265;28;20194;-86
2022/11/03 02:41:16;;;;;;;3.03;2.75;;;9.70;99.90;;;;;;5114887;28;20219;-86
2022/11/03 02:43:46;;;;;;;3.28;3.00;;;9.70;99.90;;;;;;5097476;28;20200;-86
2022/11/03 02:46:16;;;;;;;4.82;3.03;;;9.60;99.90;;;;;;5097211;28;20212;-86
2022/11/03 02:48:44;;;;;;;3.20;2.88;;;9.60;99.90;;;;;;5097630;28;20216;-86
2022/11/03 02:51:13;;;;;;;3.30;2.42;;;9.60;99.90;;;;;;5115199;28;20218;-86
2022/11/03 02:53:49;;;;;;;3.85;2.53;;;9.60;99.90;;;;;;5104071;28;20203;-86
2022/11/03 02:56:21;;;;;;;5.63;2.42;;;9.50;99.90;;;;;;5098418;28;20204;-88
2022/11/03 02:58:58;;;;;;;3.63;2.97;;;9.50;99.90;;;;;;5109508;28;20200;-86
2022/11/03 03:01:33;;;;;;;3.28;2.83;;;9.50;99.90;;;;;;5114489;28;20223;-86
2022/11/03 03:04:06;;;;;;;5.50;2.92;;;9.50;99.90;;;;;;5101486;28;20352;-86
2022/11/03 03:06:39;;;;;;;4.68;3.08;;;9.50;99.90;;;;;;5100320;28;20198;-86
2022/11/03 03:09:11;;;;;;;4.13;2.72;;;9.50;99.90;;;;;;5109954;28;20200;-86
2022/11/03 03:11:43;;;;;;;3.78;3.00;;;9.50;99.90;;;;;;5100195;28;20231;-88
2022/11/03 03:14:14;;;;;;;3.72;3.25;;;9.60;99.90;;;;;;5116400;28;20211;-88
2022/11/03 03:16:55;;;;;;;4.40;2.88;;;9.60;99.90;;;;;;5099792;28;20197;-86
2022/11/03 03:19:37;;;;;;;5.38;3.35;;;9.60;99.90;;;;;;5101663;28;20207;-86
2022/11/03 03:22:19;;;;;;;3.95;3.20;;;9.70;99.90;;;;;;5116473;28;20212;-86
2022/11/03 03:24:53;;;;;;;3.38;2.70;;;9.80;99.90;;;;;;5107515;28;20196;-86
2022/11/03 03:27:26;;;;;;;5.30;3.17;;;9.80;99.90;;;;;;5115920;28;20218;-86
2022/11/03 03:30:01;;;;;;;4.13;2.72;;;9.70;99.90;;;;;;5116259;28;20204;-86
2022/11/03 03:32:35;;;;;;;3.85;2.72;;;9.80;99.90;;;;;;5116330;28;20207;-86
2022/11/03 03:35:06;;;;;;;4.60;3.03;;;9.80;99.90;;;;;;5105439;28;20200;-86
2022/11/03 03:37:37;;;;;;;3.40;3.13;;;9.80;99.90;;;;;;5116137;28;20226;-86
2022/11/03 03:40:10;;;;;;;4.85;2.95;;;9.70;99.90;;;;;;5115841;28;20228;-87
2022/11/03 03:42:42;;;;;;;5.75;3.17;;;9.70;99.90;;;;;;5106405;28;20196;-86
2022/11/03 03:45:13;;;;;;;3.90;3.10;;;9.60;99.90;;;;;;5098774;28;20197;-86
2022/11/03 03:47:41;;;;;;;2.72;2.53;;;9.60;99.90;;;;;;5116044;28;20220;-86
2022/11/03 03:50:10;;;;;;;4.90;2.80;;;9.60;99.90;;;;;;5113550;28;20220;-86
2022/11/03 03:52:38;;;;;;;2.80;2.55;;;9.60;99.90;;;;;;5101638;28;20208;-87
2022/11/03 03:55:12;;;;;;;3.15;2.85;;;9.60;99.90;;;;;;5096324;28;20204;-86
2022/11/03 03:57:42;;;;;;;5.15;3.35;;;9.60;99.90;;;;;;5103643;28;20268;-86
2022/11/03 04:00:14;;;;;;;3.90;3.38;;;9.60;99.90;;;;;;5114328;28;20220;-87
2022/11/03 04:02:43;;;;;;;3.78;2.88;;;9.60;99.90;;;;;;5108758;28;20203;-86
2022/11/03 04:05:11;;;;;;;8.77;2.88;;;9.60;99.90;;;;;;5116158;28;20210;-86
2022/11/03 04:07:48;;;;;;;3.25;2.85;;;9.60;99.90;;;;;;5103217;28;20221;-86
2022/11/03 04:10:19;;;;;;;3.55;3.25;;;9.50;99.90;;;;;;5095323;28;20247;-87
2022/11/03 04:23:56;;;;;;;3.03;2.72;;;9.50;99.90;;;;;;5095225;28;20192;-86
2022/11/03 04:26:24;;;;;;;3.70;3.28;;;9.40;99.90;;;;;;5094907;28;20294;-86
2022/11/03 04:28:55;;;;;;;4.35;2.97;;;9.40;99.90;;;;;;5094029;28;20223;-86
2022/11/03 04:31:23;;;;;;;4.88;3.28;;;9.40;99.90;;;;;;5094708;28;20236;-86
2022/11/03 04:33:52;;;;;;;2.63;2.42;;;9.30;99.90;;;;;;5095366;28;20200;-86
2022/11/03 04:36:23;;;;;;;3.80;2.58;;;9.30;99.90;;;;;;5095326;28;20200;-88
2022/11/03 04:38:52;;;;;;;2.72;2.47;;;9.40;99.90;;;;;;5094663;28;20275;-87
2022/11/03 04:41:23;;;;;;;19.58;2.85;;;9.40;99.90;;;;;;5094690;28;20216;-86
2022/11/03 04:43:53;;;;;;;4.05;2.78;;;9.40;99.90;;;;;;5114664;28;20273;-86
2022/11/03 04:46:25;;;;;;;3.50;3.15;;;9.40;99.90;;;;;;5114938;28;20203;-86
2022/11/03 04:48:55;;;;;;;4.05;2.72;;;9.50;99.90;;;;;;5114384;28;20223;-86
2022/11/03 04:51:25;;;;;;;3.65;2.78;;;9.50;99.90;;;;;;5114670;28;20220;-86
2022/11/03 04:53:55;;;;;;;3.63;2.88;;;9.60;99.90;;;;;;5094259;28;20200;-88
2022/11/03 04:56:25;;;;;;;3.17;2.53;;;9.60;99.90;;;;;;5095233;28;20215;-86
2022/11/03 04:58:55;;;;;;;2.75;2.53;;;9.60;99.90;;;;;;5113232;28;20200;-90
2022/11/03 05:01:24;;;;;;;3.10;2.83;;;9.60;99.90;;;;;;5109317;28;20235;-88
2022/11/03 05:03:54;;;;;;;3.10;2.65;;;9.70;99.90;;;;;;5112010;28;20264;-88
2022/11/03 05:06:26;;;;;;;5.72;2.85;;;9.70;99.90;;;;;;5102539;28;20199;-88
2022/11/03 05:08:58;;;;;;;3.63;2.50;;;9.70;99.90;;;;;;5113619;28;20219;-89
2022/11/03 05:11:31;;;;;;;5.32;3.17;;;9.70;99.90;;;;;;5113672;28;20224;-89
2022/11/03 05:14:04;;;;;;;5.07;3.15;;;9.80;99.90;;;;;;5096133;28;20192;-89
2022/11/03 05:16:33;;;;;;;3.25;2.95;;;9.80;99.90;;;;;;5102462;28;20200;-89
2022/11/03 05:19:02;;;;;;;3.20;2.90;;;9.80;99.90;;;;;;5094622;28;20211;-89
2022/11/03 05:21:30;;;;;;;4.90;2.97;;;9.80;99.90;;;;;;5113139;28;20215;-89
2022/11/03 05:24:03;;;;;;;3.85;2.75;;;9.80;99.90;;;;;;5107903;28;20198;-89
2022/11/03 05:26:35;;;;;;;4.15;2.92;;;9.80;99.90;;;;;;5102599;28;20246;-89
2022/11/03 05:29:13;;;;;;;4.85;3.13;;;9.80;99.90;;;;;;5094463;28;20312;-88
2022/11/03 05:31:43;;;;;;;3.83;2.75;;;9.80;99.90;;;;;;5093906;28;20235;-89
2022/11/03 05:34:32;;;;;;;6.25;3.95;;;9.80;99.90;;;;;;5094135;28;20196;-89
2022/11/03 05:37:04;;;;;;;3.70;3.13;;;9.80;99.90;;;;;;5108604;28;20212;-89
2022/11/03 05:39:36;;;;;;;5.30;3.65;;;9.80;99.90;;;;;;5113645;28;20196;-89
2022/11/03 05:42:24;;;;;;;4.97;3.58;;;9.80;99.90;;;;;;5112359;28;20220;-89
2022/11/03 05:44:54;;;;;;;4.55;2.90;;;9.90;99.90;;;;;;5112000;28;20210;-88
2022/11/03 05:47:26;;;;;;;3.38;2.95;;;9.90;99.90;;;;;;5114105;28;20198;-89
2022/11/03 05:50:00;;;;;;;3.75;3.30;;;9.90;99.90;;;;;;5113325;28;20234;-88
2022/11/03 05:52:29;;;;;;;4.95;3.35;;;9.90;99.90;;;;;;5103611;28;20210;-88
2022/11/03 05:55:00;;;;;;;4.25;3.58;;;9.90;99.90;;;;;;5112840;28;20200;-88
2022/11/03 05:57:30;;;;;;;4.45;4.03;;;10.00;99.90;;;;;;5111986;28;20279;-89
2022/11/03 06:00:00;;;;;;;4.35;3.80;;;10.10;99.90;;;;;;5096021;28;20204;-89
2022/11/03 06:02:38;;;;;;;5.57;3.55;;;10.10;99.90;;;;;;5110020;28;20206;-88
2022/11/03 06:05:15;;;;;;;6.53;4.22;;;10.20;99.90;;;;;;5094653;28;20208;-89
2022/11/03 06:07:44;;;;;;;7.10;3.85;;;10.20;99.90;;;;;;5097990;28;20196;-90
2022/11/03 06:10:24;;;;;;;5.60;4.97;;;10.20;99.90;;;;;;5107915;28;20219;-90
2022/11/03 06:12:56;;;;;;;6.07;5.45;;;10.30;99.90;;;;;;5110034;28;20201;-90
2022/11/03 06:15:29;;;;;;;6.72;5.85;;;10.30;99.90;;;;;;5093538;28;20200;-91
2022/11/03 06:17:58;;;;;;;7.40;4.82;;;10.30;99.90;;;;;;5093813;28;20202;-90
2022/11/03 06:20:27;;;;;;;5.32;4.50;;;10.40;99.90;;;;;;5093161;28;20224;-84
2022/11/03 06:22:57;;;;;;;5.60;4.55;;;10.40;99.90;;;;;;5101132;28;20203;-88
2022/11/03 06:25:31;;;;;;;4.03;3.42;;;10.50;99.90;;;;;;5099716;28;20199;-87
2022/11/03 06:28:03;;;;;;;24.52;4.75;;;10.50;99.90;;;;;;5113869;28;20206;-85
2022/11/03 06:30:35;;;;;;;4.93;4.05;;;10.60;99.90;;;;;;5113146;28;20230;-86
2022/11/03 06:33:10;;;;;;;8.57;4.78;;;10.60;99.90;;;;;;5113988;28;20203;-86
2022/11/03 06:35:39;;;;;;;4.13;3.72;;;10.70;99.90;;;;;;5113480;28;20210;-86
2022/11/03 06:38:16;;;;;;;6.13;4.30;;;10.70;99.90;;;;;;5109547;28;20199;-86
2022/11/03 06:40:44;;;;;;;12.40;4.18;;;10.80;99.90;;;;;;5112004;28;20291;-86
2022/11/03 06:43:23;;;;;;;8.88;4.93;;;10.90;99.90;;;;;;5109933;28;20192;-88
2022/11/03 06:45:55;;;;;;;6.03;4.20;;;11.00;99.90;;;;;;5102938;28;20278;-88
2022/11/03 06:48:27;;;;;;;7.72;4.35;;;11.00;99.90;;;;;;5112130;28;20218;-82
2022/11/03 06:50:56;;;;;;;5.05;4.03;;;11.00;99.90;;;;;;5109263;28;20226;-81
2022/11/03 06:53:27;;;;;;;6.85;4.78;;;11.10;99.90;;;;;;5113365;28;20196;-81
2022/11/03 06:55:56;;;;;;;5.68;3.45;;;11.10;99.90;;;;;;5112865;28;20281;-81
2022/11/03 06:58:37;;;;;;;5.32;4.28;;;11.10;99.90;;;;;;5112263;28;20220;-81
2022/11/03 07:01:14;;;;;;;5.47;3.67;;;11.20;99.90;;;;;;5112225;28;20246;-81
2022/11/03 07:03:43;;;;;;;7.72;4.35;;;11.20;99.90;;;;;;5112485;28;20234;-81
2022/11/03 07:06:20;;;;;;;6.55;3.85;;;11.20;99.90;;;;;;5112740;28;20210;-80
2022/11/03 07:08:50;;;;;;;5.00;3.67;;;11.30;99.90;;;;;;5111825;28;20214;-81
2022/11/03 07:11:20;;;;;;;7.18;4.22;;;11.30;99.90;;;;;;5112834;28;20228;-81
2022/11/03 07:13:51;;;;;;;4.57;3.30;;;11.40;99.90;;;;;;5112689;28;20208;-81
2022/11/03 07:16:29;;;;;;;3.88;3.10;;;11.40;99.90;;;;;;5113047;28;20218;-81
2022/11/03 07:19:00;;;;;;;3.30;2.60;;;11.50;99.90;;;;;;5115994;28;20207;-81
2022/11/03 07:21:38;;;;;;;3.72;2.78;;;11.50;99.90;;;;;;5116409;28;20227;-81
2022/11/03 07:24:16;;;;;;;5.43;3.03;;;11.60;99.90;;;;;;5116505;28;20215;-81
2022/11/03 07:26:44;;;;;;;4.63;3.13;;;11.70;99.90;;;;;;5116623;28;20206;-81
2022/11/03 07:29:19;;;;;;;4.40;3.28;;;11.80;99.90;;;;;;5115685;28;20226;-82
2022/11/03 07:31:52;;;;;;;3.00;2.47;;;11.80;99.90;;;;;;5115670;28;20237;-81
2022/11/03 07:34:22;;;;;;;8.35;2.85;;;11.90;99.90;;;;;;5116368;28;20219;-81
2022/11/03 07:36:52;;;;;;;7.72;3.50;;;11.90;99.90;;;;;;5115963;28;20196;-81
2022/11/03 07:39:23;;;;;;;3.55;3.05;;;12.00;99.90;;;;;;5115578;28;20192;-81
2022/11/03 07:41:52;;;;;;;2.78;2.58;;;12.00;99.90;;;;;;5115893;28;20227;-81
2022/11/03 07:44:21;;;;;;;6.10;3.58;;;12.10;99.90;;;;;;5115694;28;20215;-81
2022/11/03 07:46:51;;;;;;;3.15;2.50;;;12.20;99.90;;;;;;5115981;28;20223;-81
2022/11/03 07:49:27;;;;;;;5.93;3.40;;;12.30;99.90;;;;;;5115217;28;20231;-81
2022/11/03 07:51:59;;;;;;;3.47;3.17;;;12.20;99.90;;;;;;5115915;28;20224;-81
2022/11/03 07:54:31;;;;;;;4.07;2.83;;;12.20;99.90;;;;;;5115670;28;20211;-81
2022/11/03 07:57:04;;;;;;;4.03;2.80;;;12.30;99.90;;;;;;5115806;28;20208;-82
2022/11/03 07:59:35;;;;;;;4.10;2.97;;;12.30;99.90;;;;;;5115210;28;20204;-80
2022/11/03 08:02:24;;;;;;;3.85;2.88;;;12.30;99.90;;;;;;5115645;28;20222;-80
2022/11/03 08:04:53;;;;;;;3.40;2.90;;;12.40;99.90;;;;;;5115667;28;20218;-82
2022/11/03 08:07:21;;;;;;;4.25;2.92;;;12.50;99.90;;;;;;5115235;28;20203;-82
2022/11/03 08:09:49;;;;;;;19.25;3.60;;;12.60;99.90;;;;;;5114942;28;20223;-82
2022/11/03 08:12:17;;;;;;;7.90;3.58;;;12.70;99.90;;;;;;5115394;28;20211;-82
2022/11/03 08:14:46;;;;;;;4.32;3.38;;;12.80;99.90;;;;;;5115089;28;20207;-82
2022/11/03 08:17:16;;;;;;;4.38;3.08;;;12.80;99.90;;;;;;5115467;28;20223;-80
2022/11/03 08:19:44;;;;;;;6.70;3.85;;;12.80;99.90;;;;;;5114602;28;20210;-81
2022/11/03 08:22:12;;;;;;;4.35;3.33;;;12.90;99.90;;;;;;5115216;28;20211;-81
2022/11/03 08:24:40;;;;;;;4.93;3.72;;;12.90;99.90;;;;;;5115249;28;20215;-80
2022/11/03 08:27:09;;;;;;;4.28;3.30;;;12.90;99.90;;;;;;5114948;28;20207;-81
2022/11/03 08:29:37;;;;;;;4.70;2.90;;;12.90;99.90;;;;;;5113432;28;20203;-81
2022/11/03 08:32:05;;;;;;;4.28;2.90;;;12.90;99.90;;;;;;5114669;28;20246;-81
2022/11/03 08:34:35;;;;;;;4.68;2.50;;;13.00;99.90;;;;;;5115038;28;20207;-81
2022/11/03 08:37:03;;;;;;;9.13;3.63;;;13.00;99.90;;;;;;5115139;28;20207;-81
2022/11/03 08:39:32;;;;;;;6.20;3.03;;;13.00;99.90;;;;;;5114350;28;20211;-80
2022/11/03 08:42:00;;;;;;;3.78;2.67;;;13.00;99.90;;;;;;5114922;28;20234;-80
2022/11/03 08:44:28;;;;;;;3.30;2.95;;;13.00;99.90;;;;;;5114898;28;20200;-81
2022/11/03 08:46:56;;;;;;;15.20;3.33;;;13.00;99.90;;;;;;5114989;28;20210;-80
2022/11/03 08:49:27;;;;;;;4.72;3.10;;;13.10;99.90;;;;;;5114204;27;20206;-87
2022/11/03 08:51:59;;;;;;;3.65;2.92;;;13.20;99.90;;;;;;5112872;28;20235;-88
2022/11/03 08:54:29;;;;;;;4.05;2.97;;;13.30;99.90;;;;;;5114605;28;20215;-87
2022/11/03 08:56:58;;;;;;;6.05;3.85;;;13.40;99.90;;;;;;5114833;28;20209;-89
2022/11/03 08:59:27;;;;;;;3.60;2.55;;;13.50;99.90;;;;;;5114468;28;20203;-89
2022/11/03 09:01:56;;;;;;;5.85;3.20;;;13.50;99.90;;;;;;5114198;28;20230;-81
2022/11/03 09:04:24;;;;;;;3.15;2.58;;;13.50;99.90;;;;;;5114484;28;20203;-82
2022/11/03 09:06:53;;;;;;;3.38;2.80;;;13.60;99.90;;;;;;5114587;28;20203;-82
2022/11/03 09:09:23;;;;;;;6.28;3.20;;;13.80;99.90;;;;;;5113681;28;20214;-82
2022/11/03 09:12:11;;;;;;;3.53;2.63;;;14.00;99.90;;;;;;5114156;28;20196;-82
2022/11/03 09:14:39;;;;;;;2.65;2.45;;;14.10;99.90;;;;;;5114235;28;20385;-82
2022/11/03 09:17:08;;;;;;;3.90;2.20;;;14.20;99.90;;;;;;5114013;28;20207;-81
2022/11/03 09:19:36;;;;;;;3.58;2.15;;;14.40;99.90;;;;;;5113692;28;20204;-81
2022/11/03 09:22:04;;;;;;;3.03;2.15;;;14.50;99.90;;;;;;5113710;28;20246;-81
2022/11/03 09:24:34;;;;;;;3.97;2.47;;;14.70;99.90;;;;;;5113483;28;20207;-81
2022/11/03 09:27:03;;;;;;;2.88;2.38;;;14.80;99.90;;;;;;5114376;28;20208;-81
2022/11/03 09:29:32;;;;;;;3.42;2.47;;;15.00;99.90;;;;;;5113271;28;20210;-82
2022/11/03 09:32:20;;;;;;;3.28;2.38;;;15.10;99.90;;;;;;5113730;28;20211;-81
2022/11/03 09:34:50;;;;;;;3.63;2.30;;;15.20;99.90;;;;;;5113385;28;20200;-88
2022/11/03 09:37:19;;;;;;;3.95;2.40;;;15.30;99.90;;;;;;5113577;28;20214;-88
2022/11/03 09:39:49;;;;;;;3.47;2.38;;;15.40;99.90;;;;;;5113030;28;20215;-88
2022/11/03 09:42:18;;;;;;;4.68;3.00;;;15.40;99.90;;;;;;5113443;28;20200;-88
2022/11/03 09:44:49;;;;;;;4.68;3.00;;;15.40;99.90;;;;;;5113811;28;20226;-88
2022/11/03 09:47:23;;;;;;;5.03;2.13;;;15.50;99.90;;;;;;5113929;28;20207;-88
2022/11/03 09:49:52;;;;;;;16.35;3.05;;;15.60;99.90;;;;;;5112887;28;20208;-88
2022/11/03 09:52:23;;;;;;;4.60;2.72;;;15.80;99.90;;;;;;5112712;28;20228;-89
2022/11/03 09:54:55;;;;;;;8.63;2.72;;;15.90;99.90;;;;;;5113379;28;20218;-88
2022/11/03 09:57:26;;;;;;;3.50;2.30;;;16.00;99.90;;;;;;5113657;28;20215;-88
2022/11/03 09:59:55;;;;;;;6.13;3.67;;;16.10;99.90;;;;;;5112691;28;20206;-88
2022/11/03 10:02:27;;;;;;;5.70;4.22;;;16.20;99.90;;;;;;5113061;28;20200;-88
2022/11/03 10:04:57;;;;;;;4.88;2.10;;;16.50;99.90;;;;;;5113356;28;20235;-88
2022/11/03 10:07:28;;;;;;;3.10;2.60;;;16.80;99.90;;;;;;5113601;28;20219;-88
2022/11/03 10:09:59;;;;;;;3.45;2.13;;;17.10;99.90;;;;;;5112848;28;20207;-81
2022/11/03 10:12:37;;;;;;;6.70;2.20;;;17.30;99.90;;;;;;5113295;28;20227;-81
2022/11/03 10:15:13;;;;;;;2.03;1.85;;;17.60;99.90;;;;;;5112926;28;20215;-81
2022/11/03 10:17:42;;;;;;;2.42;1.98;;;17.60;99.90;;;;;;5113266;28;20211;-81
2022/11/03 10:20:12;;;;;;;2.72;2.00;;;18.10;99.90;;;;;;5112678;28;20223;-81
2022/11/03 10:22:41;;;;;;;4.45;2.03;;;18.50;99.90;;;;;;5113296;28;20210;-82
2022/11/03 10:25:32;;;;;;;4.22;2.22;;;19.00;99.90;;;;;;5112974;28;20211;-81
2022/11/03 10:28:18;;;;;;;5.45;2.28;;;19.00;99.90;;;;;;5113384;28;20216;-81
2022/11/03 10:30:51;;;;;;;2.00;1.80;;;18.80;99.90;;;;;;5112658;28;20237;-81
2022/11/03 10:33:41;;;;;;;4.60;2.25;;;18.70;99.90;;;;;;5112567;28;20229;-81
2022/11/03 10:36:24;;;;;;;4.57;2.75;;;18.80;99.90;;;;;;5112981;28;20211;-81
2022/11/03 10:38:53;;;;;;;5.47;2.45;;;19.00;99.90;;;;;;5112324;28;20206;-81
2022/11/03 10:41:24;;;;;;;2.03;1.83;;;19.20;99.90;;;;;;5112988;28;20249;-81
2022/11/03 10:44:06;;;;;;;2.63;2.00;;;19.40;99.90;;;;;;5112899;28;20215;-81
2022/11/03 10:46:34;;;;;;;6.07;2.53;;;19.30;99.90;;;;;;5112808;28;20215;-88
2022/11/03 10:49:19;;;;;;;2.05;1.85;;;19.30;99.90;;;;;;5112266;28;20234;-89
2022/11/03 10:51:51;;;;;;;7.78;2.20;;;19.00;99.90;;;;;;5112904;28;20300;-89
2022/11/03 10:54:21;;;;;;;4.25;1.77;;;19.00;99.90;;;;;;5116820;28;20295;-89
2022/11/03 10:56:52;;;;;;;2.80;2.17;;;19.30;99.90;;;;;;5117463;28;20227;-89
2022/11/03 10:59:24;;;;;;;2.70;2.13;;;19.40;99.90;;;;;;5116577;28;20208;-89
2022/11/03 11:01:52;;;;;;;3.38;2.20;;;19.40;99.90;;;;;;5117022;28;20234;-88
2022/11/03 11:04:21;;;;;;;5.13;2.97;;;19.30;99.90;;;;;;5116662;28;20196;-89
2022/11/03 11:06:49;;;;;;;2.45;2.25;;;19.30;99.90;;;;;;5116686;28;20267;-89
2022/11/03 11:09:22;;;;;;;6.15;2.28;;;19.30;99.90;;;;;;5116257;28;20203;-88
2022/11/03 11:12:05;;;;;;;4.68;2.58;;;19.50;99.90;;;;;;5116821;28;20239;-89
2022/11/03 11:14:38;;;;;;;3.33;3.00;;;19.70;99.90;;;;;;5116525;28;20207;-89
2022/11/03 11:17:43;;;;;;;3.83;2.10;;;19.80;99.90;;;;;;5116126;28;20285;-89
2022/11/03 11:20:33;;;;;;;3.65;2.60;;;20.00;99.90;;;;;;5116166;28;20238;-89
2022/11/03 11:23:51;;;;;;;13.27;2.40;;;20.20;99.90;;;;;;5116432;28;20203;-89
2022/11/03 11:26:40;;;;;;;4.30;2.88;;;20.20;99.90;;;;;;5112726;28;20269;-89
2022/11/03 11:29:43;;;;;;;3.15;2.28;;;20.20;99.90;;;;;;5115737;28;20202;-89
2022/11/03 11:32:51;;;;;;;8.95;2.15;;;20.20;99.90;;;;;;5115720;28;20230;-89
2022/11/03 11:36:02;;;;;;;2.83;2.50;;;20.00;99.90;;;;;;5116052;28;20226;-89
2022/11/03 11:39:00;;;;;;;2.40;2.20;;;20.20;99.90;;;;;;5116569;28;20200;-89
2022/11/03 11:42:12;;;;;;;2.80;2.53;;;20.50;99.90;;;;;;5117102;28;20231;-89
2022/11/03 11:44:58;;;;;;;3.53;2.40;;;20.80;99.90;;;;;;5097512;28;20263;-89
2022/11/03 11:47:43;;;;;;;3.72;2.55;;;21.00;99.90;;;;;;5116012;28;20348;-89
2022/11/03 11:50:28;;;;;;;4.40;2.67;;;21.40;99.90;;;;;;5114596;28;20223;-89
2022/11/03 11:53:03;;;;;;;4.70;3.75;;;21.30;99.90;;;;;;5124034;28;20239;-89
2022/11/03 11:55:38;;;;;;;14.00;7.03;;;21.10;99.90;;;;;;5125796;28;20287;-88
2022/11/03 11:58:28;;;;;;;3.70;2.80;;;20.90;99.90;;;;;;5127499;28;20240;-89
2022/11/03 12:01:01;;;;;;;3.05;2.20;;;20.80;99.90;;;;;;5115090;28;20226;-89
2022/11/03 12:03:38;;;;;;;2.85;2.40;;;20.40;99.90;;;;;;5115757;28;20209;-89
2022/11/03 12:06:07;;;;;;;2.78;2.35;;;20.20;99.90;;;;;;5116115;28;20218;-89
2022/11/03 12:08:35;;;;;;;3.08;2.00;;;20.00;99.90;;;;;;5115427;28;20234;-90
2022/11/03 12:11:05;;;;;;;3.15;2.28;;;20.20;99.90;;;;;;5115230;28;20232;-90
2022/11/03 12:13:51;;;;;;;3.63;2.40;;;20.30;99.90;;;;;;5115643;28;20223;-89
2022/11/03 12:16:30;;;;;;;3.92;2.00;;;20.60;99.90;;;;;;5115526;28;20210;-90
2022/11/03 12:19:41;;;;;;;3.03;1.98;;;21.10;99.90;;;;;;5115110;28;20207;-90
2022/11/03 12:22:10;;;;;;;2.00;1.83;;;21.20;99.90;;;;;;5115250;28;20226;-90
2022/11/03 12:24:54;;;;;;;3.17;1.70;;;21.30;99.90;;;;;;5115130;28;20207;-90
2022/11/03 12:27:42;;;;;;;3.72;1.95;;;21.60;99.90;;;;;;5113385;28;20196;-89
2022/11/03 12:30:19;;;;;;;3.13;2.25;;;22.00;99.90;;;;;;5114318;28;20296;-90
2022/11/03 12:32:48;;;;;;;2.60;2.40;;;22.00;99.90;;;;;;5114868;28;20238;-90
2022/11/03 12:35:17;;;;;;;3.20;2.30;;;22.10;99.90;;;;;;5115196;28;20227;-90
2022/11/03 12:37:46;;;;;;;3.17;2.15;;;22.00;99.90;;;;;;5115148;28;20211;-90
2022/11/03 12:40:14;;;;;;;5.65;2.58;;;21.60;99.90;;;;;;5114155;28;20227;-90
2022/11/03 12:42:42;;;;;;;2.70;2.45;;;21.40;99.90;;;;;;5115057;28;20227;-88
2022/11/03 12:45:12;;;;;;;18.52;2.70;;;21.40;99.90;;;;;;5115216;28;20204;-89
2022/11/03 12:47:41;;;;;;;4.55;2.67;;;21.10;99.90;;;;;;5114989;28;20204;-89
2022/11/03 12:50:10;;;;;;;2.47;2.17;;;20.90;99.90;;;;;;5114390;28;20227;-89
2022/11/03 12:52:39;;;;;;;5.63;2.90;;;20.80;99.90;;;;;;5114533;28;20196;-88
2022/11/03 12:55:08;;;;;;;3.83;2.95;;;20.60;99.90;;;;;;5114350;28;20203;-88
2022/11/03 12:57:37;;;;;;;5.18;3.03;;;20.40;99.90;;;;;;5114511;28;20207;-89
2022/11/03 13:00:06;;;;;;;4.82;2.95;;;20.50;99.90;;;;;;5114255;28;20218;-88
2022/11/03 13:02:34;;;;;;;3.55;2.85;;;20.60;99.90;;;;;;5114003;28;20223;-89
2022/11/03 13:05:03;;;;;;;14.35;3.80;;;20.30;99.90;;;;;;5113940;28;20199;-89
2022/11/03 13:07:31;;;;;;;6.40;5.55;;;20.20;99.90;;;;;;5114482;28;20203;-89
2022/11/03 13:10:04;;;;;;;12.85;10.70;;;20.20;99.90;;;;;;5113521;28;20199;-90
2022/11/03 13:12:31;;;;;;;27.23;22.25;;;20.00;99.90;;;;;;5114490;28;20207;-88
2022/11/03 13:15:00;;;;;;;16.80;15.10;;;19.70;99.90;;;;;;5113839;28;20203;-88
2022/11/03 13:17:28;;;;;;;8.00;6.30;;;19.70;99.90;;;;;;5113830;28;20207;-88
2022/11/03 13:20:14;;;;;;;21.42;17.10;;;19.70;99.90;;;;;;5113328;28;20222;-89
2022/11/03 13:22:43;;;;;;;7.13;6.38;;;19.70;99.90;;;;;;5114134;28;20216;-89
2022/11/03 13:25:12;;;;;;;8.75;3.88;;;19.50;99.90;;;;;;5114214;28;20215;-89
2022/11/03 13:27:41;;;;;;;5.13;3.72;;;19.30;99.90;;;;;;5113859;28;20207;-89
2022/11/03 13:30:10;;;;;;;11.30;3.80;;;19.40;99.90;;;;;;5112956;28;20231;-89
2022/11/03 13:32:39;;;;;;;2.70;2.50;;;19.30;99.90;;;;;;5113852;28;20220;-89